sensor_id;sensor_type;location;lat;lon;timestamp;P1;durP1;ratioP1;P2;durP2;ratioP2
48588;SDS011;34369;51.174;6.738;2023-06-14T00:01:49;29.58;;;27.33;;
48588;SDS011;34369;51.174;6.738;2023-06-14T00:04:31;28.73;;;26.60;;
48588;SDS011;34369;51.174;6.738;2023-06-14T00:07:04;29.95;;;27.75;;
48588;SDS011;34369;51.174;6.738;2023-06-14T00:09:39;29.48;;;27.42;;
48588;SDS011;34369;51.174;6.738;2023-06-14T00:12:11;29.20;;;27.02;;
48588;SDS011;34369;51.174;6.738;2023-06-14T00:14:44;29.00;;;26.95;;
48588;SDS011;34369;51.174;6.738;2023-06-14T00:17:16;29.52;;;27.40;;
48588;SDS011;34369;51.174;6.738;2023-06-14T00:19:49;29.02;;;26.92;;
48588;SDS011;34369;51.174;6.738;2023-06-14T00:22:21;28.92;;;26.77;;
48588;SDS011;34369;51.174;6.738;2023-06-14T00:24:57;29.85;;;27.65;;
48588;SDS011;34369;51.174;6.738;2023-06-14T00:27:29;29.58;;;27.48;;
48588;SDS011;34369;51.174;6.738;2023-06-14T00:30:01;30.08;;;27.98;;
48588;SDS011;34369;51.174;6.738;2023-06-14T00:32:33;30.17;;;27.48;;
48588;SDS011;34369;51.174;6.738;2023-06-14T00:35:06;29.38;;;27.17;;
48588;SDS011;34369;51.174;6.738;2023-06-14T00:37:38;29.10;;;27.10;;
48588;SDS011;34369;51.174;6.738;2023-06-14T00:40:12;28.90;;;26.70;;
48588;SDS011;34369;51.174;6.738;2023-06-14T00:42:44;30.30;;;28.10;;
48588;SDS011;34369;51.174;6.738;2023-06-14T00:45:18;28.95;;;26.85;;
48588;SDS011;34369;51.174;6.738;2023-06-14T00:47:50;30.20;;;27.95;;
48588;SDS011;34369;51.174;6.738;2023-06-14T00:50:25;29.08;;;27.08;;
48588;SDS011;34369;51.174;6.738;2023-06-14T00:52:57;29.75;;;27.55;;
48588;SDS011;34369;51.174;6.738;2023-06-14T00:55:32;30.27;;;27.83;;
48588;SDS011;34369;51.174;6.738;2023-06-14T00:58:04;28.65;;;26.65;;
48588;SDS011;34369;51.174;6.738;2023-06-14T01:00:37;30.23;;;28.02;;
48588;SDS011;34369;51.174;6.738;2023-06-14T01:03:09;30.23;;;28.02;;
48588;SDS011;34369;51.174;6.738;2023-06-14T01:05:42;30.27;;;27.98;;
48588;SDS011;34369;51.174;6.738;2023-06-14T01:08:20;31.02;;;28.55;;
48588;SDS011;34369;51.174;6.738;2023-06-14T01:11:05;29.20;;;27.20;;
48588;SDS011;34369;51.174;6.738;2023-06-14T01:13:43;30.42;;;28.33;;
48588;SDS011;34369;51.174;6.738;2023-06-14T01:16:17;30.15;;;27.98;;
48588;SDS011;34369;51.174;6.738;2023-06-14T01:18:51;31.08;;;28.90;;
48588;SDS011;34369;51.174;6.738;2023-06-14T01:21:26;30.33;;;28.23;;
48588;SDS011;34369;51.174;6.738;2023-06-14T01:24:01;30.17;;;27.98;;
48588;SDS011;34369;51.174;6.738;2023-06-14T01:26:35;30.67;;;28.20;;
48588;SDS011;34369;51.174;6.738;2023-06-14T01:29:08;29.08;;;26.98;;
48588;SDS011;34369;51.174;6.738;2023-06-14T01:31:41;29.42;;;27.33;;
48588;SDS011;34369;51.174;6.738;2023-06-14T01:34:15;28.83;;;26.83;;
48588;SDS011;34369;51.174;6.738;2023-06-14T01:36:48;30.15;;;27.95;;
48588;SDS011;34369;51.174;6.738;2023-06-14T01:39:23;29.13;;;27.02;;
48588;SDS011;34369;51.174;6.738;2023-06-14T01:41:56;29.88;;;27.80;;
48588;SDS011;34369;51.174;6.738;2023-06-14T01:44:29;30.10;;;27.98;;
48588;SDS011;34369;51.174;6.738;2023-06-14T01:47:02;30.00;;;27.67;;
48588;SDS011;34369;51.174;6.738;2023-06-14T01:49:35;29.20;;;27.02;;
48588;SDS011;34369;51.174;6.738;2023-06-14T01:52:07;30.35;;;28.17;;
48588;SDS011;34369;51.174;6.738;2023-06-14T01:54:41;30.42;;;28.33;;
48588;SDS011;34369;51.174;6.738;2023-06-14T01:57:17;29.80;;;27.70;;
48588;SDS011;34369;51.174;6.738;2023-06-14T01:59:50;30.02;;;27.83;;
48588;SDS011;34369;51.174;6.738;2023-06-14T02:02:23;30.83;;;28.52;;
48588;SDS011;34369;51.174;6.738;2023-06-14T02:04:56;29.83;;;27.73;;
48588;SDS011;34369;51.174;6.738;2023-06-14T02:07:30;31.35;;;29.02;;
48588;SDS011;34369;51.174;6.738;2023-06-14T02:10:04;30.33;;;28.27;;
48588;SDS011;34369;51.174;6.738;2023-06-14T02:12:38;30.98;;;28.67;;
48588;SDS011;34369;51.174;6.738;2023-06-14T02:15:10;30.88;;;28.77;;
48588;SDS011;34369;51.174;6.738;2023-06-14T02:17:46;29.52;;;27.33;;
48588;SDS011;34369;51.174;6.738;2023-06-14T02:20:19;31.80;;;28.73;;
48588;SDS011;34369;51.174;6.738;2023-06-14T02:22:53;29.73;;;27.63;;
48588;SDS011;34369;51.174;6.738;2023-06-14T02:25:29;31.75;;;29.30;;
48588;SDS011;34369;51.174;6.738;2023-06-14T02:28:01;30.73;;;28.53;;
48588;SDS011;34369;51.174;6.738;2023-06-14T02:30:34;31.60;;;29.50;;
48588;SDS011;34369;51.174;6.738;2023-06-14T02:33:06;32.40;;;30.02;;
48588;SDS011;34369;51.174;6.738;2023-06-14T02:35:42;31.40;;;29.20;;
48588;SDS011;34369;51.174;6.738;2023-06-14T02:38:14;30.35;;;28.25;;
48588;SDS011;34369;51.174;6.738;2023-06-14T02:40:48;31.52;;;29.23;;
48588;SDS011;34369;51.174;6.738;2023-06-14T02:43:21;30.90;;;28.80;;
48588;SDS011;34369;51.174;6.738;2023-06-14T02:45:53;31.20;;;29.08;;
48588;SDS011;34369;51.174;6.738;2023-06-14T02:48:26;32.13;;;29.70;;
48588;SDS011;34369;51.174;6.738;2023-06-14T02:50:59;30.92;;;28.83;;
48588;SDS011;34369;51.174;6.738;2023-06-14T02:53:32;31.23;;;28.90;;
48588;SDS011;34369;51.174;6.738;2023-06-14T02:56:06;31.27;;;29.17;;
48588;SDS011;34369;51.174;6.738;2023-06-14T02:58:39;31.30;;;29.10;;
48588;SDS011;34369;51.174;6.738;2023-06-14T03:01:13;30.45;;;28.33;;
48588;SDS011;34369;51.174;6.738;2023-06-14T03:03:48;30.98;;;28.70;;
48588;SDS011;34369;51.174;6.738;2023-06-14T03:06:20;30.85;;;28.75;;
48588;SDS011;34369;51.174;6.738;2023-06-14T03:08:55;31.63;;;29.20;;
48588;SDS011;34369;51.174;6.738;2023-06-14T03:11:32;32.45;;;29.90;;
48588;SDS011;34369;51.174;6.738;2023-06-14T03:14:04;31.65;;;29.27;;
48588;SDS011;34369;51.174;6.738;2023-06-14T03:16:38;31.60;;;29.20;;
48588;SDS011;34369;51.174;6.738;2023-06-14T03:19:11;32.60;;;30.20;;
48588;SDS011;34369;51.174;6.738;2023-06-14T03:21:43;31.05;;;28.75;;
48588;SDS011;34369;51.174;6.738;2023-06-14T03:24:16;32.22;;;30.02;;
48588;SDS011;34369;51.174;6.738;2023-06-14T03:26:51;33.15;;;30.40;;
48588;SDS011;34369;51.174;6.738;2023-06-14T03:29:24;32.17;;;29.60;;
48588;SDS011;34369;51.174;6.738;2023-06-14T03:31:57;30.92;;;28.63;;
48588;SDS011;34369;51.174;6.738;2023-06-14T03:34:31;31.98;;;29.73;;
48588;SDS011;34369;51.174;6.738;2023-06-14T03:37:04;31.10;;;28.70;;
48588;SDS011;34369;51.174;6.738;2023-06-14T03:39:37;33.33;;;30.67;;
48588;SDS011;34369;51.174;6.738;2023-06-14T03:42:18;32.60;;;29.95;;
48588;SDS011;34369;51.174;6.738;2023-06-14T03:44:51;31.65;;;29.45;;
48588;SDS011;34369;51.174;6.738;2023-06-14T03:47:24;31.45;;;29.02;;
48588;SDS011;34369;51.174;6.738;2023-06-14T03:49:57;32.30;;;29.98;;
48588;SDS011;34369;51.174;6.738;2023-06-14T03:52:30;31.88;;;29.50;;
48588;SDS011;34369;51.174;6.738;2023-06-14T03:55:03;31.42;;;29.23;;
48588;SDS011;34369;51.174;6.738;2023-06-14T04:04:45;31.45;;;29.25;;
48588;SDS011;34369;51.174;6.738;2023-06-14T04:07:18;31.10;;;28.88;;
48588;SDS011;34369;51.174;6.738;2023-06-14T04:09:50;32.30;;;29.67;;
48588;SDS011;34369;51.174;6.738;2023-06-14T04:15:50;31.73;;;29.38;;
48588;SDS011;34369;51.174;6.738;2023-06-14T04:18:24;32.20;;;29.77;;
48588;SDS011;34369;51.174;6.738;2023-06-14T04:20:58;31.35;;;28.77;;
48588;SDS011;34369;51.174;6.738;2023-06-14T04:23:30;31.10;;;28.60;;
48588;SDS011;34369;51.174;6.738;2023-06-14T04:26:07;31.35;;;28.85;;
48588;SDS011;34369;51.174;6.738;2023-06-14T04:31:15;31.40;;;28.83;;
48588;SDS011;34369;51.174;6.738;2023-06-14T04:33:54;31.52;;;29.35;;
48588;SDS011;34369;51.174;6.738;2023-06-14T04:36:27;30.43;;;28.20;;
48588;SDS011;34369;51.174;6.738;2023-06-14T04:38:59;30.35;;;28.15;;
48588;SDS011;34369;51.174;6.738;2023-06-14T04:41:34;30.65;;;28.45;;
48588;SDS011;34369;51.174;6.738;2023-06-14T04:44:08;30.42;;;28.33;;
48588;SDS011;34369;51.174;6.738;2023-06-14T04:46:42;30.52;;;28.23;;
48588;SDS011;34369;51.174;6.738;2023-06-14T04:49:17;30.52;;;28.35;;
48588;SDS011;34369;51.174;6.738;2023-06-14T04:51:50;30.60;;;28.40;;
48588;SDS011;34369;51.174;6.738;2023-06-14T04:54:27;29.92;;;27.73;;
48588;SDS011;34369;51.174;6.738;2023-06-14T04:57:01;29.00;;;26.90;;
48588;SDS011;34369;51.174;6.738;2023-06-14T04:59:34;28.50;;;26.50;;
48588;SDS011;34369;51.174;6.738;2023-06-14T05:02:08;29.55;;;27.35;;
48588;SDS011;34369;51.174;6.738;2023-06-14T05:04:43;29.40;;;27.10;;
48588;SDS011;34369;51.174;6.738;2023-06-14T05:07:17;30.08;;;27.88;;
48588;SDS011;34369;51.174;6.738;2023-06-14T05:09:51;28.90;;;26.80;;
48588;SDS011;34369;51.174;6.738;2023-06-14T05:12:24;28.33;;;26.23;;
48588;SDS011;34369;51.174;6.738;2023-06-14T05:14:59;28.23;;;26.13;;
48588;SDS011;34369;51.174;6.738;2023-06-14T05:17:32;27.90;;;25.90;;
48588;SDS011;34369;51.174;6.738;2023-06-14T05:20:10;28.50;;;26.50;;
48588;SDS011;34369;51.174;6.738;2023-06-14T05:22:43;28.35;;;26.27;;
48588;SDS011;34369;51.174;6.738;2023-06-14T05:25:16;28.98;;;26.95;;
48588;SDS011;34369;51.174;6.738;2023-06-14T05:27:50;28.70;;;26.65;;
48588;SDS011;34369;51.174;6.738;2023-06-14T05:30:23;28.20;;;26.10;;
48588;SDS011;34369;51.174;6.738;2023-06-14T05:32:56;28.42;;;25.88;;
48588;SDS011;34369;51.174;6.738;2023-06-14T05:35:31;28.98;;;26.90;;
48588;SDS011;34369;51.174;6.738;2023-06-14T05:40:38;28.33;;;26.23;;
48588;SDS011;34369;51.174;6.738;2023-06-14T05:43:14;27.55;;;25.35;;
48588;SDS011;34369;51.174;6.738;2023-06-14T05:45:57;27.85;;;25.92;;
48588;SDS011;34369;51.174;6.738;2023-06-14T05:48:30;27.90;;;25.90;;
48588;SDS011;34369;51.174;6.738;2023-06-14T05:51:09;27.75;;;25.67;;
48588;SDS011;34369;51.174;6.738;2023-06-14T05:53:42;27.73;;;25.73;;
48588;SDS011;34369;51.174;6.738;2023-06-14T05:56:16;27.15;;;25.00;;
48588;SDS011;34369;51.174;6.738;2023-06-14T05:58:49;26.38;;;24.45;;
48588;SDS011;34369;51.174;6.738;2023-06-14T06:01:22;27.52;;;25.33;;
48588;SDS011;34369;51.174;6.738;2023-06-14T06:03:55;27.00;;;25.10;;
48588;SDS011;34369;51.174;6.738;2023-06-14T06:06:50;26.73;;;24.83;;
48588;SDS011;34369;51.174;6.738;2023-06-14T06:09:25;26.42;;;24.58;;
48588;SDS011;34369;51.174;6.738;2023-06-14T06:11:58;26.25;;;24.33;;
48588;SDS011;34369;51.174;6.738;2023-06-14T06:14:32;26.88;;;24.98;;
48588;SDS011;34369;51.174;6.738;2023-06-14T06:17:05;26.67;;;24.63;;
48588;SDS011;34369;51.174;6.738;2023-06-14T06:19:38;26.05;;;24.15;;
48588;SDS011;34369;51.174;6.738;2023-06-14T06:22:11;26.17;;;24.27;;
48588;SDS011;34369;51.174;6.738;2023-06-14T06:24:43;25.67;;;23.63;;
48588;SDS011;34369;51.174;6.738;2023-06-14T06:27:15;26.40;;;24.40;;
48588;SDS011;34369;51.174;6.738;2023-06-14T06:29:50;25.42;;;23.63;;
48588;SDS011;34369;51.174;6.738;2023-06-14T06:32:23;25.67;;;23.77;;
48588;SDS011;34369;51.174;6.738;2023-06-14T06:34:55;24.77;;;22.88;;
48588;SDS011;34369;51.174;6.738;2023-06-14T06:37:32;24.90;;;22.83;;
48588;SDS011;34369;51.174;6.738;2023-06-14T06:40:14;25.55;;;23.58;;
48588;SDS011;34369;51.174;6.738;2023-06-14T06:42:47;25.48;;;23.30;;
48588;SDS011;34369;51.174;6.738;2023-06-14T06:45:23;24.67;;;22.77;;
48588;SDS011;34369;51.174;6.738;2023-06-14T06:47:57;24.33;;;22.52;;
48588;SDS011;34369;51.174;6.738;2023-06-14T06:50:31;24.65;;;22.92;;
48588;SDS011;34369;51.174;6.738;2023-06-14T06:53:07;24.75;;;22.85;;
48588;SDS011;34369;51.174;6.738;2023-06-14T06:55:40;25.23;;;23.33;;
48588;SDS011;34369;51.174;6.738;2023-06-14T06:58:15;24.45;;;22.70;;
48588;SDS011;34369;51.174;6.738;2023-06-14T07:00:47;23.92;;;22.00;;
48588;SDS011;34369;51.174;6.738;2023-06-14T07:03:19;24.27;;;22.48;;
48588;SDS011;34369;51.174;6.738;2023-06-14T07:05:53;24.00;;;22.08;;
48588;SDS011;34369;51.174;6.738;2023-06-14T07:08:27;24.13;;;22.33;;
48588;SDS011;34369;51.174;6.738;2023-06-14T07:11:00;23.38;;;21.58;;
48588;SDS011;34369;51.174;6.738;2023-06-14T07:13:34;23.58;;;21.77;;
48588;SDS011;34369;51.174;6.738;2023-06-14T07:16:07;23.45;;;21.55;;
48588;SDS011;34369;51.174;6.738;2023-06-14T07:18:40;23.17;;;21.48;;
48588;SDS011;34369;51.174;6.738;2023-06-14T07:21:14;22.65;;;20.95;;
48588;SDS011;34369;51.174;6.738;2023-06-14T07:23:49;22.75;;;21.05;;
48588;SDS011;34369;51.174;6.738;2023-06-14T07:26:22;22.33;;;20.73;;
48588;SDS011;34369;51.174;6.738;2023-06-14T07:28:55;24.00;;;22.08;;
48588;SDS011;34369;51.174;6.738;2023-06-14T07:31:27;22.30;;;20.65;;
48588;SDS011;34369;51.174;6.738;2023-06-14T07:34:00;22.92;;;21.23;;
48588;SDS011;34369;51.174;6.738;2023-06-14T07:36:33;23.10;;;21.30;;
48588;SDS011;34369;51.174;6.738;2023-06-14T07:39:08;22.33;;;20.73;;
48588;SDS011;34369;51.174;6.738;2023-06-14T07:41:40;22.42;;;20.70;;
48588;SDS011;34369;51.174;6.738;2023-06-14T07:44:13;22.15;;;20.40;;
48588;SDS011;34369;51.174;6.738;2023-06-14T07:46:46;21.92;;;20.23;;
48588;SDS011;34369;51.174;6.738;2023-06-14T07:49:19;21.27;;;19.67;;
48588;SDS011;34369;51.174;6.738;2023-06-14T07:51:51;22.70;;;21.10;;
48588;SDS011;34369;51.174;6.738;2023-06-14T07:54:26;21.63;;;19.92;;
48588;SDS011;34369;51.174;6.738;2023-06-14T07:57:00;21.40;;;19.73;;
48588;SDS011;34369;51.174;6.738;2023-06-14T07:59:32;20.80;;;19.20;;
48588;SDS011;34369;51.174;6.738;2023-06-14T08:02:05;20.20;;;18.70;;
48588;SDS011;34369;51.174;6.738;2023-06-14T08:04:37;19.50;;;18.00;;
48588;SDS011;34369;51.174;6.738;2023-06-14T08:07:12;18.92;;;17.40;;
48588;SDS011;34369;51.174;6.738;2023-06-14T08:09:45;18.77;;;17.17;;
48588;SDS011;34369;51.174;6.738;2023-06-14T08:12:18;18.50;;;17.00;;
48588;SDS011;34369;51.174;6.738;2023-06-14T08:14:50;18.25;;;16.85;;
48588;SDS011;34369;51.174;6.738;2023-06-14T08:17:23;18.50;;;16.90;;
48588;SDS011;34369;51.174;6.738;2023-06-14T08:19:55;17.63;;;16.13;;
48588;SDS011;34369;51.174;6.738;2023-06-14T08:22:28;17.77;;;16.30;;
48588;SDS011;34369;51.174;6.738;2023-06-14T08:27:38;17.77;;;16.27;;
48588;SDS011;34369;51.174;6.738;2023-06-14T08:30:11;17.55;;;16.15;;
48588;SDS011;34369;51.174;6.738;2023-06-14T08:32:45;17.38;;;15.88;;
48588;SDS011;34369;51.174;6.738;2023-06-14T08:35:17;17.48;;;16.08;;
48588;SDS011;34369;51.174;6.738;2023-06-14T08:37:50;17.13;;;15.52;;
48588;SDS011;34369;51.174;6.738;2023-06-14T08:40:23;17.30;;;15.82;;
48588;SDS011;34369;51.174;6.738;2023-06-14T08:42:55;17.05;;;15.65;;
48588;SDS011;34369;51.174;6.738;2023-06-14T08:45:29;16.75;;;15.35;;
48588;SDS011;34369;51.174;6.738;2023-06-14T08:48:02;17.50;;;16.05;;
48588;SDS011;34369;51.174;6.738;2023-06-14T08:50:35;17.85;;;16.35;;
48588;SDS011;34369;51.174;6.738;2023-06-14T08:53:11;17.80;;;16.30;;
48588;SDS011;34369;51.174;6.738;2023-06-14T08:55:52;17.02;;;15.63;;
48588;SDS011;34369;51.174;6.738;2023-06-14T08:58:25;16.77;;;15.27;;
48588;SDS011;34369;51.174;6.738;2023-06-14T09:00:59;17.05;;;15.65;;
48588;SDS011;34369;51.174;6.738;2023-06-14T09:03:34;17.70;;;16.20;;
48588;SDS011;34369;51.174;6.738;2023-06-14T09:06:11;17.35;;;15.68;;
48588;SDS011;34369;51.174;6.738;2023-06-14T09:12:24;17.05;;;15.65;;
48588;SDS011;34369;51.174;6.738;2023-06-14T09:14:56;17.00;;;15.50;;
48588;SDS011;34369;51.174;6.738;2023-06-14T09:17:29;16.27;;;14.88;;
48588;SDS011;34369;51.174;6.738;2023-06-14T09:20:05;16.48;;;14.98;;
48588;SDS011;34369;51.174;6.738;2023-06-14T09:22:41;16.55;;;15.20;;
48588;SDS011;34369;51.174;6.738;2023-06-14T09:25:13;16.98;;;15.48;;
48588;SDS011;34369;51.174;6.738;2023-06-14T09:27:48;16.75;;;15.27;;
48588;SDS011;34369;51.174;6.738;2023-06-14T09:30:23;16.58;;;15.00;;
48588;SDS011;34369;51.174;6.738;2023-06-14T09:32:55;16.75;;;15.35;;
48588;SDS011;34369;51.174;6.738;2023-06-14T09:35:28;16.40;;;15.00;;
48588;SDS011;34369;51.174;6.738;2023-06-14T09:38:07;16.75;;;15.35;;
48588;SDS011;34369;51.174;6.738;2023-06-14T09:40:40;17.50;;;16.10;;
48588;SDS011;34369;51.174;6.738;2023-06-14T09:43:14;17.10;;;15.70;;
48588;SDS011;34369;51.174;6.738;2023-06-14T09:45:46;17.98;;;16.35;;
48588;SDS011;34369;51.174;6.738;2023-06-14T09:48:20;17.73;;;16.23;;
48588;SDS011;34369;51.174;6.738;2023-06-14T09:50:53;17.83;;;16.42;;
48588;SDS011;34369;51.174;6.738;2023-06-14T09:53:30;17.85;;;16.35;;
48588;SDS011;34369;51.174;6.738;2023-06-14T09:56:06;18.25;;;16.85;;
48588;SDS011;34369;51.174;6.738;2023-06-14T09:58:41;18.50;;;16.90;;
48588;SDS011;34369;51.174;6.738;2023-06-14T10:01:14;18.65;;;17.25;;
48588;SDS011;34369;51.174;6.738;2023-06-14T10:03:49;18.25;;;16.85;;
48588;SDS011;34369;51.174;6.738;2023-06-14T10:06:26;18.58;;;17.08;;
48588;SDS011;34369;51.174;6.738;2023-06-14T10:09:00;19.13;;;17.70;;
48588;SDS011;34369;51.174;6.738;2023-06-14T10:11:36;19.15;;;17.67;;
48588;SDS011;34369;51.174;6.738;2023-06-14T10:14:15;19.27;;;17.77;;
48588;SDS011;34369;51.174;6.738;2023-06-14T10:16:51;19.27;;;17.88;;
48588;SDS011;34369;51.174;6.738;2023-06-14T10:19:54;19.25;;;17.75;;
48588;SDS011;34369;51.174;6.738;2023-06-14T10:22:45;20.35;;;18.60;;
48588;SDS011;34369;51.174;6.738;2023-06-14T10:25:26;19.67;;;18.17;;
48588;SDS011;34369;51.174;6.738;2023-06-14T10:28:17;19.92;;;18.42;;
48588;SDS011;34369;51.174;6.738;2023-06-14T10:31:04;19.48;;;17.98;;
48588;SDS011;34369;51.174;6.738;2023-06-14T10:33:39;19.75;;;18.25;;
48588;SDS011;34369;51.174;6.738;2023-06-14T10:36:27;19.77;;;18.17;;
48588;SDS011;34369;51.174;6.738;2023-06-14T10:39:04;19.85;;;18.35;;
48588;SDS011;34369;51.174;6.738;2023-06-14T10:41:39;20.08;;;18.48;;
48588;SDS011;34369;51.174;6.738;2023-06-14T10:44:37;20.23;;;18.63;;
48588;SDS011;34369;51.174;6.738;2023-06-14T10:47:26;19.75;;;18.25;;
48588;SDS011;34369;51.174;6.738;2023-06-14T10:50:04;20.00;;;18.50;;
48588;SDS011;34369;51.174;6.738;2023-06-14T10:52:40;19.55;;;18.05;;
48588;SDS011;34369;51.174;6.738;2023-06-14T10:55:15;18.92;;;17.40;;
48588;SDS011;34369;51.174;6.738;2023-06-14T10:57:50;18.33;;;16.92;;
48588;SDS011;34369;51.174;6.738;2023-06-14T11:00:27;19.00;;;17.45;;
48588;SDS011;34369;51.174;6.738;2023-06-14T11:06:41;19.52;;;17.85;;
48588;SDS011;34369;51.174;6.738;2023-06-14T11:12:26;18.10;;;16.70;;
48588;SDS011;34369;51.174;6.738;2023-06-14T11:15:05;18.35;;;16.63;;
48588;SDS011;34369;51.174;6.738;2023-06-14T11:17:38;18.17;;;16.58;;
48588;SDS011;34369;51.174;6.738;2023-06-14T11:20:10;17.48;;;16.08;;
48588;SDS011;34369;51.174;6.738;2023-06-14T11:22:52;17.80;;;16.40;;
48588;SDS011;34369;51.174;6.738;2023-06-14T11:25:26;17.50;;;16.10;;
48588;SDS011;34369;51.174;6.738;2023-06-14T11:27:59;17.55;;;16.15;;
48588;SDS011;34369;51.174;6.738;2023-06-14T11:30:31;18.13;;;16.63;;
48588;SDS011;34369;51.174;6.738;2023-06-14T11:33:04;17.52;;;16.13;;
48588;SDS011;34369;51.174;6.738;2023-06-14T11:35:41;17.40;;;16.00;;
48588;SDS011;34369;51.174;6.738;2023-06-14T11:38:16;17.52;;;16.13;;
48588;SDS011;34369;51.174;6.738;2023-06-14T11:40:49;17.98;;;16.40;;
48588;SDS011;34369;51.174;6.738;2023-06-14T11:43:21;17.55;;;16.05;;
48588;SDS011;34369;51.174;6.738;2023-06-14T11:45:54;17.70;;;16.30;;
48588;SDS011;34369;51.174;6.738;2023-06-14T11:48:35;18.10;;;16.60;;
48588;SDS011;34369;51.174;6.738;2023-06-14T11:51:09;17.88;;;16.48;;
48588;SDS011;34369;51.174;6.738;2023-06-14T11:53:44;18.25;;;16.75;;
48588;SDS011;34369;51.174;6.738;2023-06-14T11:58:49;17.90;;;16.50;;
48588;SDS011;34369;51.174;6.738;2023-06-14T12:01:22;18.10;;;16.70;;
48588;SDS011;34369;51.174;6.738;2023-06-14T12:03:55;17.48;;;16.08;;
48588;SDS011;34369;51.174;6.738;2023-06-14T12:06:28;17.75;;;16.35;;
48588;SDS011;34369;51.174;6.738;2023-06-14T12:09:10;17.95;;;16.55;;
48588;SDS011;34369;51.174;6.738;2023-06-14T12:11:49;17.77;;;16.38;;
48588;SDS011;34369;51.174;6.738;2023-06-14T12:14:21;18.05;;;16.65;;
48588;SDS011;34369;51.174;6.738;2023-06-14T12:17:06;18.27;;;16.77;;
48588;SDS011;34369;51.174;6.738;2023-06-14T12:19:42;18.70;;;17.27;;
48588;SDS011;34369;51.174;6.738;2023-06-14T12:22:19;18.73;;;17.10;;
48588;SDS011;34369;51.174;6.738;2023-06-14T12:24:52;18.42;;;16.73;;
48588;SDS011;34369;51.174;6.738;2023-06-14T12:27:27;18.55;;;17.13;;
48588;SDS011;34369;51.174;6.738;2023-06-14T12:30:00;18.20;;;16.80;;
48588;SDS011;34369;51.174;6.738;2023-06-14T12:32:33;18.98;;;17.45;;
48588;SDS011;34369;51.174;6.738;2023-06-14T12:35:05;18.63;;;17.05;;
48588;SDS011;34369;51.174;6.738;2023-06-14T12:40:23;19.00;;;17.60;;
48588;SDS011;34369;51.174;6.738;2023-06-14T12:42:56;18.95;;;17.45;;
48588;SDS011;34369;51.174;6.738;2023-06-14T12:45:28;19.35;;;17.75;;
48588;SDS011;34369;51.174;6.738;2023-06-14T12:48:01;18.50;;;17.00;;
48588;SDS011;34369;51.174;6.738;2023-06-14T12:50:34;18.15;;;16.35;;
48588;SDS011;34369;51.174;6.738;2023-06-14T12:53:07;18.23;;;16.83;;
48588;SDS011;34369;51.174;6.738;2023-06-14T12:55:42;18.83;;;17.13;;
48588;SDS011;34369;51.174;6.738;2023-06-14T12:58:15;18.58;;;16.77;;
48588;SDS011;34369;51.174;6.738;2023-06-14T13:00:50;19.00;;;17.58;;
48588;SDS011;34369;51.174;6.738;2023-06-14T13:03:22;18.30;;;16.90;;
48588;SDS011;34369;51.174;6.738;2023-06-14T13:05:56;19.02;;;17.52;;
48588;SDS011;34369;51.174;6.738;2023-06-14T13:08:28;18.20;;;16.70;;
48588;SDS011;34369;51.174;6.738;2023-06-14T13:11:03;18.75;;;17.23;;
48588;SDS011;34369;51.174;6.738;2023-06-14T13:13:35;18.25;;;16.83;;
48588;SDS011;34369;51.174;6.738;2023-06-14T13:16:08;18.23;;;16.80;;
48588;SDS011;34369;51.174;6.738;2023-06-14T13:18:41;18.42;;;17.02;;
48588;SDS011;34369;51.174;6.738;2023-06-14T13:21:17;18.42;;;17.02;;
48588;SDS011;34369;51.174;6.738;2023-06-14T13:24:07;18.88;;;17.20;;
48588;SDS011;34369;51.174;6.738;2023-06-14T13:26:41;18.02;;;16.63;;
48588;SDS011;34369;51.174;6.738;2023-06-14T13:29:45;18.08;;;16.58;;
48588;SDS011;34369;51.174;6.738;2023-06-14T13:32:20;18.10;;;16.67;;
48588;SDS011;34369;51.174;6.738;2023-06-14T13:34:52;18.63;;;17.05;;
48588;SDS011;34369;51.174;6.738;2023-06-14T13:37:25;19.25;;;17.75;;
48588;SDS011;34369;51.174;6.738;2023-06-14T13:39:58;19.58;;;17.98;;
48588;SDS011;34369;51.174;6.738;2023-06-14T13:42:32;19.17;;;17.67;;
48588;SDS011;34369;51.174;6.738;2023-06-14T13:45:06;18.97;;;17.33;;
48588;SDS011;34369;51.174;6.738;2023-06-14T13:47:44;19.02;;;17.50;;
48588;SDS011;34369;51.174;6.738;2023-06-14T13:50:18;19.20;;;17.60;;
48588;SDS011;34369;51.174;6.738;2023-06-14T13:52:51;19.45;;;17.83;;
48588;SDS011;34369;51.174;6.738;2023-06-14T13:55:24;19.42;;;17.88;;
48588;SDS011;34369;51.174;6.738;2023-06-14T13:57:58;18.98;;;17.48;;
48588;SDS011;34369;51.174;6.738;2023-06-14T14:00:31;19.00;;;17.58;;
48588;SDS011;34369;51.174;6.738;2023-06-14T14:03:04;19.40;;;17.90;;
48588;SDS011;34369;51.174;6.738;2023-06-14T14:05:36;19.08;;;17.58;;
48588;SDS011;34369;51.174;6.738;2023-06-14T14:08:09;18.98;;;17.48;;
48588;SDS011;34369;51.174;6.738;2023-06-14T14:10:43;19.17;;;17.67;;
48588;SDS011;34369;51.174;6.738;2023-06-14T14:13:17;19.27;;;17.75;;
48588;SDS011;34369;51.174;6.738;2023-06-14T14:15:50;19.25;;;17.75;;
48588;SDS011;34369;51.174;6.738;2023-06-14T14:18:22;19.25;;;17.80;;
48588;SDS011;34369;51.174;6.738;2023-06-14T14:20:55;18.92;;;17.42;;
48588;SDS011;34369;51.174;6.738;2023-06-14T14:23:28;18.75;;;17.10;;
48588;SDS011;34369;51.174;6.738;2023-06-14T14:26:00;19.17;;;17.67;;
48588;SDS011;34369;51.174;6.738;2023-06-14T14:28:35;19.30;;;17.67;;
48588;SDS011;34369;51.174;6.738;2023-06-14T14:31:08;19.10;;;17.60;;
48588;SDS011;34369;51.174;6.738;2023-06-14T14:33:40;19.08;;;17.67;;
48588;SDS011;34369;51.174;6.738;2023-06-14T14:36:13;19.02;;;17.52;;
48588;SDS011;34369;51.174;6.738;2023-06-14T14:38:46;19.10;;;17.60;;
48588;SDS011;34369;51.174;6.738;2023-06-14T14:43:55;19.38;;;17.88;;
48588;SDS011;34369;51.174;6.738;2023-06-14T14:46:29;19.27;;;17.67;;
48588;SDS011;34369;51.174;6.738;2023-06-14T14:49:02;18.95;;;17.35;;
48588;SDS011;34369;51.174;6.738;2023-06-14T14:51:38;19.30;;;17.77;;
48588;SDS011;34369;51.174;6.738;2023-06-14T14:54:17;19.17;;;17.67;;
48588;SDS011;34369;51.174;6.738;2023-06-14T14:56:50;18.90;;;17.40;;
48588;SDS011;34369;51.174;6.738;2023-06-14T14:59:26;18.83;;;17.42;;
48588;SDS011;34369;51.174;6.738;2023-06-14T15:02:00;19.02;;;17.52;;
48588;SDS011;34369;51.174;6.738;2023-06-14T15:04:34;19.30;;;17.83;;
48588;SDS011;34369;51.174;6.738;2023-06-14T15:07:07;19.30;;;17.80;;
48588;SDS011;34369;51.174;6.738;2023-06-14T15:09:40;18.83;;;17.33;;
48588;SDS011;34369;51.174;6.738;2023-06-14T15:12:13;18.98;;;17.48;;
48588;SDS011;34369;51.174;6.738;2023-06-14T15:15:00;19.95;;;18.45;;
48588;SDS011;34369;51.174;6.738;2023-06-14T15:17:36;19.45;;;17.95;;
48588;SDS011;34369;51.174;6.738;2023-06-14T15:20:09;20.40;;;18.80;;
48588;SDS011;34369;51.174;6.738;2023-06-14T15:22:44;19.77;;;18.27;;
48588;SDS011;34369;51.174;6.738;2023-06-14T15:25:16;19.50;;;17.88;;
48588;SDS011;34369;51.174;6.738;2023-06-14T15:27:51;19.50;;;18.00;;
48588;SDS011;34369;51.174;6.738;2023-06-14T15:30:26;19.25;;;17.75;;
48588;SDS011;34369;51.174;6.738;2023-06-14T15:32:59;19.70;;;18.20;;
48588;SDS011;34369;51.174;6.738;2023-06-14T15:35:31;20.20;;;18.40;;
48588;SDS011;34369;51.174;6.738;2023-06-14T15:38:05;19.83;;;18.25;;
48588;SDS011;34369;51.174;6.738;2023-06-14T15:40:38;19.50;;;18.00;;